Buck Shoals, North Carolina
Current Conditions -  °F | °C
As of 2:55 PM on Thursday 18 Dec 2014 (Local Time) from KUKF Reporting Station
Broken Clouds Broken Clouds  
Wind Chill: 46°   Ceiling: 6500
Heat Index: 46°   Visibility: 10mi
Dew Point: 23°   Wind: 0mph
Humidity: 40%   Direction: NA
Pressure: 30.11"   Gusts: NA
Location:  36.116°N, 80.8154°W
Report Text: KUKF 181955Z AUTO 00000KT 10SM BKN065 08/M05 A3011 RMK AO2
Loading
Personal Weather Stations






























Interactive Weather Map New forecast layout! Learn more

10-Day Weather Forecast

Advertisements
Track Severe Weather on mobile